Kecskemet, Hungary
Current Conditions -  °F | °C
As of 11:45 AM on Monday 20 Oct 2014 (Local Time) from LHKE Reporting Station
Clear Clear  
Wind Chill: 64°   Ceiling: Unl
Heat Index: 64°   Visibility: 6mi
Dew Point: 55°   Wind: 9mph
Humidity: 73%   Direction: 270°W
Pressure: 30.09"   Gusts: NA
Location:  46.91°N, 19.69°E
Report Text: LHKE 200945Z 27008KT 240V300 CAVOK 18/13 Q1019 NOSIG RMK BLU
Loading
Personal Weather Stations






























Interactive Weather Map
Tropical Storm Tracking
New forecast layout! Learn more

10-Day Weather Forecast

Advertisements
Track Severe Weather on mobile